Latest Coastal Weather Observations for Flinders Island Airport

IDV60701

Issued at 4:01 am EDT Wednesday 28 January 2015 (issued every 10 minutes, with the page automatically refreshed every 10 minutes)

About coastal observations | Map of coastal stations | Coastal observations for VIC | Marine services | Other Formats
Station Details ID: 099005 Name: FLINDERS ISLAND AIRPORT Lat: -40.09 Lon: 148.00 Height: 9.0 m
Data from the previous 72 hours. | See also: Recent months at Flinders Island Airport
Date/Time
EDT
Temp

°C
Wind Pressure Rain
since 9am
mm
Weather Cloud Vis
km
Sea
Height
m
Swell
Dir
 
Speed
knots
Gust
knots
hPa Trend Height
m
Period
s
Dir
28/04:00am 13.9 ESE 5 6 1018.6 - 0.0 - Cloudy 10 - - - -
28/03:30am 14.1 SE 5 7 1018.8 - 0.0 - Cloudy 10 - - - -
28/03:00am 13.8 SE 5 7 1018.9 - 0.0 - Mostly cloudy 10 - - - -
28/02:30am 14.2 ESE 6 8 1019.0 - 0.0 - Partly cloudy 10 - - - -
28/02:00am 14.2 ESE 7 12 1019.1 - 0.0 - Partly cloudy 10 - - - -
28/01:30am 14.1 ESE 9 14 1019.0 - 0.0 - Partly cloudy 10 - - - -
28/01:00am 13.4 SE 7 11 1019.0 - 0.0 - - 10 - - - -
28/12:30am 12.7 E 5 5 1018.9 - 0.0 - Partly cloudy 10 - - - -
28/12:00am 10.5 ENE 6 7 1018.9 - 0.0 - - 10 - - - -
 
Date/Time
EDT
Temp

°C
Wind Pressure Rain
since 9am
mm
Weather Cloud Vis
km
Sea
Height
m
Swell
Dir
 
Speed
knots
Gust
knots
hPa Trend Height
m
Period
s
Dir
27/11:30pm 8.7 ENE 5 6 1018.8 - 0.0 - - 10 - - - -
27/11:00pm 9.5 ENE 6 6 1018.8 - 0.0 - - 10 - - - -
27/10:30pm 10.3 ENE 5 6 1018.8 - 0.0 - Partly cloudy 10 - - - -
27/10:00pm 12.0 NE 4 5 1018.6 - 0.0 - Partly cloudy 10 - - - -
27/09:30pm 11.9 WNW 2 4 1018.4 - 0.0 - Partly cloudy 10 - - - -
27/09:00pm 14.2 W 3 7 1017.9 - 0.0 - - 10 - - - -
27/08:30pm 15.7 WSW 5 6 1017.7 - 0.0 - - 10 - - - -
27/08:00pm 16.6 W 7 9 1017.3 - 0.0 - - 10 - - - -
27/07:30pm 17.3 W 8 11 1017.0 - 0.0 - - 10 - - - -
27/07:00pm 17.3 W 10 12 1016.5 - 0.0 - - 10 - - - -
27/06:30pm 17.7 WNW 11 15 1016.0 - 0.0 - - 10 - - - -
27/06:00pm 18.0 WNW 11 15 1016.0 - 0.0 - - 10 - - - -
27/05:30pm 17.9 W 10 13 1016.1 - 0.0 - - 10 - - - -
27/05:00pm 18.0 WSW 10 13 1016.3 - 0.0 - - 10 - - - -
27/04:30pm 18.8 W 8 11 1016.2 - 0.0 - - 10 - - - -
27/04:00pm 18.8 WSW 8 10 1016.4 - 0.0 - - 10 - - - -
27/03:30pm 18.6 WSW 9 12 1016.6 - 0.0 - - 10 - - - -
27/03:00pm 19.1 WSW 10 15 1016.6 - 0.0 - - 10 - - - -
27/02:30pm 18.1 WSW 10 15 1016.8 - 0.0 - Partly cloudy 10 - - - -
27/02:00pm 18.6 WSW 12 16 1016.8 - 0.0 - - 10 - - - -
27/01:30pm 18.7 WSW 11 15 1016.9 - 0.0 - - 10 - - - -
27/01:00pm 18.6 WSW 12 15 1017.2 - 0.0 - - 10 - - - -
27/12:30pm 18.2 WSW 10 14 1017.1 - 0.0 - - 10 - - - -
27/12:00pm 17.9 WSW 11 14 1017.1 - 0.0 - - 10 - - - -
27/11:30am 18.2 WSW 10 14 1017.0 - 0.0 - Partly cloudy 10 - - - -
27/11:00am 17.4 WSW 10 13 1017.1 - 0.0 - Partly cloudy 10 - - - -
27/10:30am 17.4 WSW 9 12 1017.1 - 0.0 - Partly cloudy 10 - - - -
27/10:00am 16.8 W 10 14 1017.2 - 0.0 - Partly cloudy 10 - - - -
27/09:30am 17.7 NNW 7 14 1017.0 - 0.0 - Partly cloudy 10 - - - -
27/09:00am 17.1 NNW 8 11 1017.1 - 0.0 - - 10 - - - -
27/08:30am 16.7 N 8 10 1016.9 - 0.0 - - 10 - - - -
27/08:00am 14.1 ENE 7 9 1016.7 - 0.0 - - 10 - - - -
27/07:30am 10.6 ENE 7 8 1016.6 - 0.0 - - 10 - - - -
27/07:00am 7.6 ENE 8 9 1016.4 - 0.0 - - 10 - - - -
27/06:30am 6.8 ENE 8 9 1016.3 - 0.0 - Partly cloudy 10 - - - -
27/06:00am 6.6 ENE 6 7 1016.3 - 0.0 - Mostly cloudy 10 - - - -
27/05:30am 6.3 ENE 7 7 1016.1 - 0.0 - - 10 - - - -
27/05:00am 6.3 ENE 9 9 1016.0 - 0.0 - - 10 - - - -
27/04:30am 6.5 ENE 8 9 1016.1 - 0.0 - - 10 - - - -
27/04:00am 6.5 NE 7 7 1016.2 - 0.0 - - 10 - - - -
27/03:30am 6.1 ENE 7 8 1016.5 - 0.0 - - 10 - - - -
27/03:00am 6.1 ENE 8 9 1016.7 - 0.0 - - 10 - - - -
27/02:30am 5.5 ENE 8 9 1016.9 - 0.0 - - 10 - - - -
27/02:00am 5.7 ENE 8 9 1017.1 - 0.0 - - 10 - - - -
27/01:30am 6.2 ENE 8 9 1017.1 - 0.0 - - 10 - - - -
27/01:00am 6.0 ENE 7 8 1017.2 - 0.0 - - 10 - - - -
27/12:30am 6.6 ENE 8 8 1017.3 - 0.0 - - 10 - - - -
27/12:00am 6.6 ENE 7 8 1017.4 - 0.0 - - 10 - - - -
 
Date/Time
EDT
Temp

°C
Wind Pressure Rain
since 9am
mm
Weather Cloud Vis
km
Sea
Height
m
Swell
Dir
 
Speed
knots
Gust
knots
hPa Trend Height
m
Period
s
Dir
26/11:30pm 7.1 ENE 7 8 1017.4 - 0.0 - - 10 - - - -
26/11:00pm 7.8 ENE 7 8 1017.5 - 0.0 - - 10 - - - -
26/10:30pm 8.3 ENE 5 6 1017.6 - 0.0 - - 10 - - - -
26/10:00pm 9.3 ENE 5 7 1017.5 - 0.0 - - 10 - - - -
26/09:30pm 10.8 NNE 5 6 1017.2 - 0.0 - Partly cloudy 10 - - - -
26/09:00pm 13.7 NW 5 7 1016.9 - 0.0 - Mostly clear 10 - - - -
26/08:30pm 15.2 W 8 11 1016.7 - 0.0 - - 10 - - - -
26/08:00pm 16.2 WNW 8 11 1016.3 - 0.0 - - 10 - - - -
26/07:30pm 16.5 W 8 11 1015.9 - 0.0 - Partly cloudy 10 - - - -
26/07:00pm 17.0 W 9 13 1015.7 - 0.0 - Partly cloudy 10 - - - -
26/06:30pm 16.9 W 9 13 1015.4 - 0.0 - Partly cloudy 10 - - - -
26/06:00pm 17.8 WSW 13 16 1015.2 - 0.0 - Mostly clear 10 - - - -
26/05:30pm 17.5 W 12 15 1015.2 - 0.0 - Partly cloudy 10 - - - -
26/05:00pm 17.8 W 13 17 1015.2 - 0.0 - - 10 - - - -
26/04:30pm 18.0 WSW 14 16 1015.3 - 0.0 - Partly cloudy 10 - - - -
26/04:00pm 18.3 WSW 14 17 1015.4 - 0.0 - Partly cloudy 10 - - - -
26/03:30pm 18.4 WSW 15 19 1015.3 - 0.0 - - 10 - - - -
26/03:00pm 18.1 WSW 16 22 1015.3 - 0.0 - - 10 - - - -
26/02:30pm 18.5 WSW 17 20 1015.1 - 0.0 - - 10 - - - -
26/02:00pm 18.7 WSW 17 21 1015.4 - 0.0 - Partly cloudy 10 - - - -
26/01:30pm 18.2 WSW 17 21 1015.4 - 0.0 - - 10 - - - -
26/01:00pm 18.0 WSW 16 19 1015.3 - 0.0 - Partly cloudy 10 - - - -
26/12:30pm 17.7 WSW 16 20 1015.3 - 0.0 - Partly cloudy 10 - - - -
26/12:00pm 18.1 WSW 18 21 1015.0 - 0.0 - Mostly clear 10 - - - -
26/11:30am 17.2 WSW 18 21 1015.1 - 0.0 - Partly cloudy 10 - - - -
26/11:00am 17.4 WSW 18 21 1015.2 - 0.0 - - 10 - - - -
26/10:30am 17.2 WSW 18 22 1015.0 - 0.0 - Partly cloudy 10 - - - -
26/10:00am 16.6 WSW 19 22 1014.8 - 0.0 - Partly cloudy 10 - - - -
26/09:30am 17.0 WSW 18 23 1014.5 - 0.0 - Partly cloudy 10 - - - -
26/09:00am 16.5 WSW 18 22 1014.3 - 0.6 - - 10 - - - -
26/08:30am 16.0 WSW 21 25 1013.7 - 0.6 - - 10 - - - -
26/08:00am 15.4 WSW 20 27 1013.3 - 0.6 - - 10 - - - -
26/07:30am 15.1 WSW 22 27 1013.0 - 0.6 - Partly cloudy 10 - - - -
26/07:00am 14.7 WSW 21 27 1012.7 - 0.6 - Partly cloudy 10 - - - -
26/06:30am 14.4 WSW 20 24 1012.4 - 0.6 - Partly cloudy 10 - - - -
26/06:00am 14.3 W 19 21 1012.1 - 0.6 - Cloudy 10 - - - -
26/05:30am 14.2 WSW 21 27 1011.7 - 0.6 - Partly cloudy 10 - - - -
26/05:00am 14.2 WSW 22 26 1011.4 - 0.6 - - 10 - - - -
26/04:30am 14.0 WSW 20 25 1011.1 - 0.6 - Partly cloudy 10 - - - -
26/04:00am 14.2 WSW 22 28 1010.9 - 0.6 - Partly cloudy 10 - - - -
26/03:30am 14.2 WSW 23 27 1010.7 - 0.6 - Partly cloudy 10 - - - -
26/03:00am 14.4 W 26 31 1010.3 - 0.6 - Mostly cloudy 10 - - - -
26/02:30am 14.2 WSW 21 27 1010.3 - 0.6 - Partly cloudy 10 - - - -
26/02:00am 14.1 WSW 22 30 1010.3 - 0.6 - Partly cloudy 10 - - - -
26/01:30am 13.8 WSW 21 27 1010.3 - 0.6 - Partly cloudy 10 - - - -
26/01:00am 13.7 WSW 22 27 1010.2 - 0.6 - Partly cloudy 10 - - - -
26/12:30am 13.8 WSW 25 30 1010.1 - 0.6 - Partly cloudy 10 - - - -
26/12:00am 14.3 W 27 32 1009.8 - 0.6 - Mostly clear 10 - - - -
 
Date/Time
EDT
Temp

°C
Wind Pressure Rain
since 9am
mm
Weather Cloud Vis
km
Sea
Height
m
Swell
Dir
 
Speed
knots
Gust
knots
hPa Trend Height
m
Period
s
Dir
25/11:30pm 14.5 WSW 25 31 1009.6 - 0.6 - Partly cloudy 10 - - - -
25/11:00pm 14.5 WSW 26 31 1009.4 - 0.6 - Partly cloudy 10 - - - -
25/10:30pm 14.6 WSW 27 33 1009.2 - 0.6 - Partly cloudy 10 - - - -
25/10:00pm 14.9 WSW 24 30 1008.8 - 0.6 - Partly cloudy 10 - - - -
25/09:30pm 15.0 W 29 36 1008.5 - 0.6 - Partly cloudy 10 - - - -
25/09:00pm 15.0 W 27 34 1008.0 - 0.6 - Mostly clear 10 - - - -
25/08:30pm 15.4 W 27 33 1007.4 - 0.6 - Partly cloudy 10 - - - -
25/08:00pm 15.3 W 27 34 1007.0 - 0.6 - Partly cloudy 10 - - - -
25/07:41pm 15.4 W 28 38 1006.7 - 0.6 - Partly cloudy 10 - - - -
25/07:30pm 15.7 W 31 39 1006.5 - 0.6 - Partly cloudy 10 - - - -
25/07:00pm 16.0 WSW 28 34 1006.1 - 0.6 - Partly cloudy 10 - - - -
25/06:30pm 16.4 W 30 37 1005.8 - 0.6 - Partly cloudy 10 - - - -
25/06:00pm 16.3 W 28 33 1005.4 - 0.6 - Partly cloudy 10 - - - -
25/05:30pm 16.6 W 27 33 1005.1 - 0.6 - Partly cloudy 10 - - - -
25/05:00pm 16.8 W 30 37 1004.9 - 0.6 - Partly cloudy 10 - - - -
25/04:30pm 17.5 W 31 39 1004.7 - 0.6 - Partly cloudy 10 - - - -
25/04:05pm 16.2 W 28 38 1004.6 - 0.6 - Partly cloudy 10 - - - -
25/04:00pm 16.8 WSW 29 38 1004.5 - 0.6 - Partly cloudy 10 - - - -
25/03:52pm 17.5 W 29 39 1004.4 - 0.6 - Partly cloudy 10 - - - -
25/03:30pm 17.9 W 33 40 1004.2 - 0.6 - - 10 - - - -
25/03:00pm 17.9 W 31 39 1004.0 - 0.6 - Partly cloudy 10 - - - -
25/02:30pm 18.3 W 29 35 1004.1 - 0.6 - Partly cloudy 10 - - - -
25/02:00pm 18.4 W 27 37 1003.7 - 0.6 - Partly cloudy 10 - - - -
25/01:57pm 18.9 W 27 37 1003.8 - 0.6 - Partly cloudy 10 - - - -
25/01:30pm 17.8 W 27 33 1003.5 - 0.6 - Partly cloudy 10 - - - -
25/01:00pm 18.1 W 29 36 1003.2 - 0.6 - Partly cloudy 10 - - - -
25/12:46pm 18.1 W 28 38 1003.1 - 0.6 - Partly cloudy 10 - - - -
25/12:30pm 18.7 W 26 32 1003.1 - 0.6 - Partly cloudy 10 - - - -
25/12:00pm 17.7 WSW 27 33 1002.9 - 0.6 - Partly cloudy 10 - - - -
25/11:30am 18.0 W 25 32 1002.6 - 0.6 - - 10 - - - -
25/11:00am 17.3 WSW 26 31 1002.4 - 0.6 - Partly cloudy 10 - - - -
25/10:30am 16.6 W 21 27 1002.3 - 0.6 - Partly cloudy 10 - - - -
25/10:11am 15.0 W 18 21 1002.5 - 0.6 - Partly cloudy 10 - - - -
25/10:00am 14.5 W 22 31 1002.5 - 0.6 - Partly cloudy 5 - - - -
25/09:56am 14.4 W 23 31 1002.7 - 0.6 - Partly cloudy 5 - - - -
25/09:30am 15.0 W 17 26 1002.8 - 0.4 - Partly cloudy 10 - - - -
25/09:00am 14.7 W 24 30 1002.6 - 2.6 - Mostly cloudy 9 - - - -
25/08:46am 15.9 W 22 32 1002.5 - 2.6 - Partly cloudy 10 - - - -
25/08:30am 15.8 WSW 24 31 1002.1 - 2.6 - Partly cloudy 10 - - - -
25/08:00am 15.7 WSW 29 36 1000.8 - 2.6 - Partly cloudy 10 - - - -
25/07:57am 15.7 WSW 29 36 1000.7 - 2.6 - Partly cloudy 10 - - - -
25/07:41am 15.5 W 23 34 1000.5 - 2.6 - Partly cloudy 5 - - - -
25/07:36am 16.9 WNW 15 31 1000.5 - 2.2 - Partly cloudy 10 - - - -
25/07:30am 17.3 NW 11 15 1000.1 - 2.2 - Partly cloudy 10 - - - -
25/07:00am 16.6 NNW 6 11 999.6 - 2.2 - Partly cloudy 10 - - - -
25/06:30am 15.7 NNW 6 7 999.4 - 2.2 - Partly cloudy 10 - - - -
25/06:00am 15.5 NW 6 7 999.6 - 2.2 - Mostly cloudy 10 - - - -
25/05:30am 15.4 NW 4 5 999.3 - 2.2 - Partly cloudy 10 - - - -
25/05:00am 15.5 NW 5 6 999.4 - 2.2 - Partly cloudy 10 - - - -
25/04:30am 15.8 NW 6 9 999.6 - 2.2 - Cloudy 10 - - - -

Other Formats:

Comma delimited format used in spreadsheet applications
http://www.bom.gov.au/fwo/IDV60701/IDV60701.94980.axf

JavaScript Object Notation format (JSON) in row-major order
http://www.bom.gov.au/fwo/IDV60701/IDV60701.94980.json